createdAt,value
2023-05-23T00:02:02.206Z,43.41
2023-05-23T00:04:29.301Z,43.32
2023-05-23T00:06:56.493Z,43.21
2023-05-23T00:09:23.581Z,43.17
2023-05-23T00:11:50.794Z,43.35
2023-05-23T00:14:18.361Z,43.30
2023-05-23T00:16:46.467Z,43.63
2023-05-23T00:19:17.105Z,43.50
2023-05-23T00:21:50.946Z,43.51
2023-05-23T00:24:18.795Z,43.67
2023-05-23T00:26:46.854Z,43.45
2023-05-23T00:29:18.585Z,43.68
2023-05-23T00:31:46.792Z,43.74
2023-05-23T00:34:17.789Z,43.58
2023-05-23T00:36:48.002Z,43.71
2023-05-23T00:39:21.865Z,43.74
2023-05-23T00:41:52.174Z,43.55
2023-05-23T00:44:21.879Z,43.76
2023-05-23T00:46:59.102Z,43.84
2023-05-23T00:49:28.197Z,43.81
2023-05-23T00:51:55.472Z,43.78
2023-05-23T00:54:31.357Z,43.62
2023-05-23T00:56:59.125Z,43.99
2023-05-23T00:59:27.311Z,44.04
2023-05-23T01:01:57.307Z,43.76
2023-05-23T01:04:28.424Z,43.65
2023-05-23T01:06:56.512Z,43.94
2023-05-23T01:09:27.792Z,43.80
2023-05-23T01:12:27.802Z,44.00
2023-05-23T01:15:06.553Z,44.08
2023-05-23T01:17:53.088Z,43.65
2023-05-23T01:20:27.196Z,43.96
2023-05-23T01:23:12.141Z,44.05
2023-05-23T01:25:59.855Z,44.04
2023-05-23T01:28:45.709Z,43.51
2023-05-23T01:31:14.187Z,43.70
2023-05-23T01:33:41.779Z,43.77
2023-05-23T01:36:10.275Z,43.85
2023-05-23T01:38:37.251Z,43.97
2023-05-23T01:41:04.334Z,43.68
2023-05-23T01:43:31.995Z,44.04
2023-05-23T01:46:00.936Z,44.01
2023-05-23T01:48:29.173Z,43.67
2023-05-23T01:50:57.225Z,43.87
2023-05-23T01:53:25.689Z,44.11
2023-05-23T01:55:53.129Z,43.99
2023-05-23T01:58:22.374Z,43.88
2023-05-23T02:00:49.602Z,43.65
2023-05-23T02:03:17.087Z,43.73
2023-05-23T02:05:44.566Z,43.71
2023-05-23T02:08:11.802Z,43.75
2023-05-23T02:10:38.746Z,43.79
2023-05-23T02:13:05.938Z,44.05
2023-05-23T02:15:33.100Z,43.70
2023-05-23T02:18:02.076Z,43.92
2023-05-23T02:20:29.391Z,43.68
2023-05-23T02:22:56.417Z,44.00
2023-05-23T02:25:23.505Z,43.63
2023-05-23T02:27:50.484Z,43.86
2023-05-23T02:30:17.598Z,43.65
2023-05-23T02:32:44.788Z,43.88
2023-05-23T02:35:13.627Z,43.97
2023-05-23T02:37:41.630Z,43.86
2023-05-23T02:40:09.392Z,44.07
2023-05-23T02:42:36.999Z,43.98
2023-05-23T02:45:04.337Z,43.84
2023-05-23T02:47:31.775Z,43.62
2023-05-23T02:49:58.964Z,43.73
2023-05-23T02:52:26.258Z,43.88
2023-05-23T02:54:53.940Z,43.96
2023-05-23T02:57:21.580Z,43.67
2023-05-23T02:59:48.737Z,43.95
2023-05-23T03:02:15.816Z,43.95
2023-05-23T03:04:42.983Z,43.82
2023-05-23T03:07:20.618Z,43.55
2023-05-23T03:09:55.083Z,43.59
2023-05-23T03:12:22.606Z,43.59
2023-05-23T03:14:49.612Z,43.86
2023-05-23T03:17:16.658Z,43.68
2023-05-23T03:19:43.716Z,43.91
2023-05-23T03:22:10.782Z,43.48
2023-05-23T03:24:37.888Z,43.97
2023-05-23T03:27:05.514Z,43.72
2023-05-23T03:29:33.028Z,43.90
2023-05-23T03:32:00.207Z,43.58
2023-05-23T03:34:27.755Z,43.63
2023-05-23T03:36:54.759Z,43.69
2023-05-23T03:39:22.990Z,44.05
2023-05-23T03:41:50.079Z,43.72
2023-05-23T03:44:17.446Z,43.74
2023-05-23T03:46:44.727Z,43.80
2023-05-23T03:49:11.932Z,43.49
2023-05-23T03:51:39.011Z,43.66
2023-05-23T03:54:06.458Z,43.98
2023-05-23T03:56:33.949Z,43.86
2023-05-23T03:59:01.438Z,44.09
2023-05-23T04:01:28.638Z,43.91
2023-05-23T04:03:55.811Z,43.74
2023-05-23T04:06:25.477Z,43.86
2023-05-23T04:08:53.468Z,43.85
2023-05-23T04:11:22.225Z,43.84
2023-05-23T04:13:49.298Z,44.34
2023-05-23T04:16:16.845Z,44.46
2023-05-23T04:18:47.229Z,44.35
2023-05-23T04:21:14.775Z,43.92
2023-05-23T04:23:51.944Z,43.92
2023-05-23T04:26:19.393Z,44.21
2023-05-23T04:28:54.360Z,43.96
2023-05-23T04:31:25.366Z,44.04
2023-05-23T04:33:52.487Z,44.56
2023-05-23T04:36:20.603Z,44.42
2023-05-23T04:38:52.437Z,44.37
2023-05-23T04:41:23.731Z,44.62
2023-05-23T04:44:30.266Z,44.69
2023-05-23T04:47:14.226Z,44.98
2023-05-23T04:50:00.418Z,44.89
2023-05-23T04:52:28.488Z,44.57
2023-05-23T04:54:56.011Z,45.10
2023-05-23T04:57:23.167Z,44.72
2023-05-23T04:59:50.641Z,45.26
2023-05-23T05:02:17.816Z,44.85
2023-05-23T05:04:44.860Z,45.24
2023-05-23T05:07:11.967Z,45.00
2023-05-23T05:09:39.681Z,45.08
2023-05-23T05:12:07.881Z,45.45
2023-05-23T05:14:35.490Z,45.36
2023-05-23T05:17:02.932Z,45.12
2023-05-23T05:19:37.528Z,45.34
2023-05-23T05:22:08.018Z,45.40
2023-05-23T05:24:35.404Z,45.60
2023-05-23T05:27:02.585Z,45.40
2023-05-23T05:29:31.306Z,45.42
2023-05-23T05:31:58.753Z,45.63
2023-05-23T05:34:25.809Z,45.72
2023-05-23T05:36:56.002Z,45.47
2023-05-23T05:39:26.357Z,45.47
2023-05-23T05:41:53.567Z,45.90
2023-05-23T05:44:21.015Z,45.70
2023-05-23T05:46:48.931Z,45.99
2023-05-23T05:49:16.044Z,45.61
2023-05-23T05:51:45.860Z,46.17
2023-05-23T05:54:13.194Z,45.97
2023-05-23T05:56:40.572Z,46.11
2023-05-23T05:59:07.751Z,46.03
2023-05-23T06:01:35.871Z,46.29
2023-05-23T06:04:03.252Z,46.14
2023-05-23T06:06:32.286Z,46.17
2023-05-23T06:08:59.800Z,46.45
2023-05-23T06:11:26.977Z,46.45
2023-05-23T06:13:54.072Z,46.05
2023-05-23T06:16:21.311Z,46.33
2023-05-23T06:18:48.682Z,46.14
2023-05-23T06:21:16.114Z,46.22
2023-05-23T06:23:43.585Z,46.17
2023-05-23T06:26:10.900Z,46.42
2023-05-23T06:28:41.456Z,46.03
2023-05-23T06:31:11.816Z,46.37
2023-05-23T06:33:39.479Z,46.54
2023-05-23T06:36:06.778Z,46.32
2023-05-23T06:38:33.867Z,46.10
2023-05-23T06:41:02.326Z,46.74
2023-05-23T06:43:29.635Z,46.59
2023-05-23T06:46:12.807Z,46.55
2023-05-23T06:48:40.309Z,46.77
2023-05-23T06:51:07.507Z,46.42
2023-05-23T06:53:34.636Z,46.65
2023-05-23T06:56:02.021Z,46.57
2023-05-23T06:58:31.844Z,46.67
2023-05-23T07:01:03.210Z,46.57
2023-05-23T07:03:38.390Z,46.77
2023-05-23T07:06:08.213Z,46.76
2023-05-23T07:08:35.946Z,46.66
2023-05-23T07:11:05.319Z,46.96
2023-05-23T07:13:39.812Z,47.02
2023-05-23T07:16:07.038Z,46.83
2023-05-23T07:18:38.752Z,46.69
2023-05-23T07:21:07.452Z,46.94
2023-05-23T07:23:34.847Z,47.02
2023-05-23T07:26:03.292Z,47.12
2023-05-23T07:28:45.467Z,46.98
2023-05-23T07:31:13.568Z,47.19
2023-05-23T07:33:42.881Z,47.22
2023-05-23T07:36:12.133Z,47.45
2023-05-23T07:38:39.255Z,47.06
2023-05-23T07:41:11.456Z,47.12
2023-05-23T07:43:41.194Z,47.38
2023-05-23T07:46:08.726Z,47.60
2023-05-23T07:48:36.974Z,47.15
2023-05-23T07:51:04.633Z,47.43
2023-05-23T07:53:31.778Z,47.08
2023-05-23T07:55:59.204Z,47.57
2023-05-23T07:58:31.025Z,47.58
2023-05-23T08:00:59.518Z,47.33
2023-05-23T08:03:44.966Z,47.41
2023-05-23T08:06:18.921Z,47.18
2023-05-23T08:08:46.480Z,47.26
2023-05-23T08:11:15.530Z,47.69
2023-05-23T08:13:46.635Z,47.48
2023-05-23T08:16:34.778Z,47.58
2023-05-23T08:19:02.557Z,47.33
2023-05-23T08:21:29.662Z,47.29
2023-05-23T08:23:56.804Z,47.47
2023-05-23T08:26:24.032Z,47.15
2023-05-23T08:28:52.940Z,47.51
2023-05-23T08:31:20.320Z,47.13
2023-05-23T08:33:47.441Z,47.21
2023-05-23T08:36:14.442Z,47.13
2023-05-23T08:38:43.640Z,47.18
2023-05-23T08:41:23.532Z,47.25
2023-05-23T08:43:57.304Z,47.24
2023-05-23T08:46:29.336Z,47.17
2023-05-23T08:48:58.961Z,47.44
2023-05-23T08:51:28.149Z,46.98
2023-05-23T08:53:59.404Z,46.70
2023-05-23T08:56:28.882Z,46.68
2023-05-23T08:58:58.448Z,46.93
2023-05-23T09:01:27.961Z,46.87
2023-05-23T09:04:02.979Z,47.04
2023-05-23T09:06:37.988Z,47.03
2023-05-23T09:09:07.249Z,46.55
2023-05-23T09:11:36.241Z,46.77
2023-05-23T09:14:07.990Z,46.30
2023-05-23T09:16:35.744Z,46.85
2023-05-23T09:19:13.749Z,46.40
2023-05-23T09:21:45.776Z,46.28
2023-05-23T09:24:22.706Z,46.28
2023-05-23T09:26:50.068Z,46.25
2023-05-23T09:29:21.513Z,46.27
2023-05-23T09:31:48.893Z,46.61
2023-05-23T09:34:16.087Z,45.95
2023-05-23T09:36:44.257Z,45.94
2023-05-23T09:39:12.940Z,46.07
2023-05-23T09:41:40.736Z,46.09
2023-05-23T09:44:10.951Z,46.00
2023-05-23T09:46:38.784Z,46.18
2023-05-23T09:49:18.154Z,46.18
2023-05-23T09:51:58.833Z,45.88
2023-05-23T09:54:26.138Z,45.67
2023-05-23T09:56:56.941Z,45.56
2023-05-23T09:59:28.765Z,45.51
2023-05-23T10:01:58.146Z,45.76
2023-05-23T10:04:26.910Z,45.38
2023-05-23T10:07:00.081Z,45.37
2023-05-23T10:09:29.320Z,45.22
2023-05-23T10:12:33.037Z,45.36
2023-05-23T10:15:05.872Z,45.04
2023-05-23T10:18:02.676Z,45.26
2023-05-23T10:20:35.067Z,44.90
2023-05-23T10:23:03.412Z,44.95
2023-05-23T10:25:31.027Z,44.95
2023-05-23T10:28:01.667Z,45.08
2023-05-23T10:30:30.471Z,44.89
2023-05-23T10:32:59.381Z,44.73
2023-05-23T10:36:13.399Z,45.06
2023-05-23T10:39:00.611Z,44.85
2023-05-23T10:41:52.020Z,44.81
2023-05-23T10:44:27.784Z,44.78
2023-05-23T10:47:04.082Z,44.72
2023-05-23T10:49:45.128Z,44.75
2023-05-23T10:52:16.567Z,44.58
2023-05-23T10:54:51.818Z,44.31
2023-05-23T10:57:27.890Z,44.33
2023-05-23T10:59:55.130Z,44.51
2023-05-23T11:02:29.502Z,43.94
2023-05-23T11:05:22.883Z,44.05
2023-05-23T11:08:09.743Z,44.28
2023-05-23T11:11:12.422Z,44.14
2023-05-23T11:14:03.054Z,44.00
2023-05-23T11:16:35.431Z,44.21
2023-05-23T11:19:22.960Z,44.75
2023-05-23T11:21:54.644Z,44.59
2023-05-23T11:24:22.572Z,44.87
2023-05-23T11:26:55.493Z,44.97
2023-05-23T11:29:22.614Z,45.24
2023-05-23T11:31:49.795Z,45.54
2023-05-23T11:34:18.595Z,45.48
2023-05-23T11:36:45.790Z,45.54
2023-05-23T11:39:13.865Z,45.43
2023-05-23T11:41:43.333Z,45.91
2023-05-23T11:44:13.678Z,46.17
2023-05-23T11:46:41.440Z,45.92
2023-05-23T11:49:12.703Z,46.05
2023-05-23T11:51:39.961Z,46.10
2023-05-23T11:54:07.500Z,46.58
2023-05-23T11:56:40.705Z,46.52
2023-05-23T11:59:07.998Z,46.40
2023-05-23T12:01:37.584Z,46.35
2023-05-23T12:04:14.021Z,46.41
2023-05-23T12:06:41.967Z,46.65
2023-05-23T12:09:12.480Z,46.64
2023-05-23T12:11:40.936Z,46.83
2023-05-23T12:14:09.349Z,46.90
2023-05-23T12:16:37.965Z,47.26
2023-05-23T12:19:06.952Z,47.04
2023-05-23T12:21:48.149Z,46.88
2023-05-23T12:24:17.590Z,47.27
2023-05-23T12:26:53.002Z,47.31
2023-05-23T12:29:35.414Z,47.24
2023-05-23T12:32:04.805Z,47.23
2023-05-23T12:34:32.005Z,47.23
2023-05-23T12:37:18.041Z,47.31
2023-05-23T12:39:46.731Z,47.29
2023-05-23T12:42:13.914Z,47.40
2023-05-23T12:44:44.186Z,47.03
2023-05-23T12:47:11.342Z,47.32
2023-05-23T12:49:38.587Z,47.35
2023-05-23T12:52:06.225Z,47.42
2023-05-23T12:54:33.341Z,47.39
2023-05-23T12:57:00.403Z,47.33
2023-05-23T12:59:27.549Z,47.46
2023-05-23T13:01:56.105Z,47.73
2023-05-23T13:04:23.255Z,47.86
2023-05-23T13:06:51.059Z,47.79
2023-05-23T13:09:18.368Z,47.73
2023-05-23T13:11:46.787Z,48.03
2023-05-23T13:14:14.127Z,47.91
2023-05-23T13:16:41.521Z,47.93
2023-05-23T13:19:08.664Z,48.04
2023-05-23T13:21:36.202Z,48.02
2023-05-23T13:24:03.238Z,47.95
2023-05-23T13:26:30.599Z,47.98
2023-05-23T13:28:57.935Z,48.23
2023-05-23T13:31:25.347Z,48.20
2023-05-23T13:33:52.768Z,48.32
2023-05-23T13:36:20.101Z,48.23
2023-05-23T13:38:47.385Z,48.34
2023-05-23T13:41:14.655Z,48.36
2023-05-23T13:43:41.715Z,48.48
2023-05-23T13:46:08.890Z,48.34
2023-05-23T13:48:37.042Z,48.45
2023-05-23T13:51:04.343Z,48.31
2023-05-23T13:53:31.621Z,48.42
2023-05-23T13:56:00.130Z,48.44
2023-05-23T13:58:27.545Z,49.13
2023-05-23T14:00:55.276Z,48.70
2023-05-23T14:03:22.868Z,48.70
2023-05-23T14:05:51.407Z,48.74
2023-05-23T14:08:18.641Z,49.07
2023-05-23T14:10:45.858Z,48.99
2023-05-23T14:13:12.850Z,49.25
2023-05-23T14:15:42.198Z,49.33
2023-05-23T14:18:09.703Z,49.54
2023-05-23T14:20:36.905Z,49.47
2023-05-23T14:23:03.890Z,49.50
2023-05-23T14:25:31.126Z,49.33
2023-05-23T14:27:58.367Z,49.48
2023-05-23T14:30:25.876Z,49.46
2023-05-23T14:32:54.269Z,49.34
2023-05-23T14:35:26.180Z,49.08
2023-05-23T14:37:53.190Z,49.42
2023-05-23T14:40:20.266Z,49.47
2023-05-23T14:42:47.326Z,49.56
2023-05-23T14:45:15.817Z,49.46
2023-05-23T14:47:45.041Z,49.33
2023-05-23T14:50:12.448Z,49.48
2023-05-23T14:52:39.498Z,49.74
2023-05-23T14:55:07.237Z,49.56
2023-05-23T14:57:34.204Z,49.50
2023-05-23T15:00:03.809Z,49.56
2023-05-23T15:02:31.144Z,49.52
2023-05-23T15:04:58.461Z,49.79
2023-05-23T15:07:26.186Z,49.63
2023-05-23T15:09:53.689Z,49.78
2023-05-23T15:12:20.947Z,49.58
2023-05-23T15:14:48.222Z,49.79
2023-05-23T15:17:20.077Z,49.78
2023-05-23T15:19:47.386Z,49.83
2023-05-23T15:22:33.678Z,49.87
2023-05-23T15:25:01.962Z,50.13
2023-05-23T15:27:29.147Z,50.13
2023-05-23T15:29:56.193Z,50.26
2023-05-23T15:32:23.254Z,50.32
2023-05-23T15:34:50.558Z,50.33
2023-05-23T15:37:17.994Z,50.68
2023-05-23T15:39:45.229Z,50.72
2023-05-23T15:42:12.361Z,50.93
2023-05-23T15:44:39.384Z,51.23
2023-05-23T15:47:06.361Z,51.12
2023-05-23T15:49:33.381Z,51.11
2023-05-23T15:52:00.709Z,50.94
2023-05-23T15:54:27.798Z,50.94
2023-05-23T15:56:54.847Z,50.96
2023-05-23T15:59:21.906Z,50.86
2023-05-23T16:01:49.027Z,51.09
2023-05-23T16:04:16.200Z,51.16
2023-05-23T16:06:43.419Z,51.34
2023-05-23T16:09:10.995Z,51.16
2023-05-23T16:11:38.089Z,51.06
2023-05-23T16:14:05.994Z,51.15
2023-05-23T16:16:33.168Z,50.94
2023-05-23T16:19:00.245Z,50.91
2023-05-23T16:21:27.455Z,50.90
2023-05-23T16:23:54.429Z,50.89
2023-05-23T16:26:21.565Z,50.87
2023-05-23T16:28:48.561Z,50.83
2023-05-23T16:31:16.840Z,50.93
2023-05-23T16:33:45.002Z,50.94
2023-05-23T16:36:11.951Z,50.74
2023-05-23T16:38:38.939Z,50.70
2023-05-23T16:41:05.984Z,50.79
2023-05-23T16:43:34.635Z,50.94
2023-05-23T16:46:01.690Z,50.68
2023-05-23T16:48:28.947Z,50.41
2023-05-23T16:50:57.891Z,50.56
2023-05-23T16:53:24.937Z,50.66
2023-05-23T16:55:51.958Z,50.39
2023-05-23T16:58:21.218Z,50.62
2023-05-23T17:00:48.786Z,50.32
2023-05-23T17:03:16.406Z,50.57
2023-05-23T17:05:43.590Z,50.67
2023-05-23T17:08:10.829Z,50.63
2023-05-23T17:10:37.990Z,50.57
2023-05-23T17:13:04.990Z,50.51
2023-05-23T17:15:32.120Z,50.28
2023-05-23T17:17:59.131Z,50.58
2023-05-23T17:20:26.968Z,50.44
2023-05-23T17:22:54.959Z,50.29
2023-05-23T17:25:22.229Z,50.33
2023-05-23T17:27:49.244Z,50.43
2023-05-23T17:30:18.623Z,50.17
2023-05-23T17:32:47.271Z,50.25
2023-05-23T17:35:14.726Z,50.46
2023-05-23T17:37:43.535Z,50.40
2023-05-23T17:40:15.697Z,50.47
2023-05-23T17:42:43.250Z,50.40
2023-05-23T17:45:10.625Z,50.45
2023-05-23T17:47:37.855Z,50.42
2023-05-23T17:50:06.258Z,50.38
2023-05-23T17:52:33.389Z,50.28
2023-05-23T17:55:00.828Z,50.38
2023-05-23T17:57:28.905Z,50.33
2023-05-23T17:59:55.955Z,50.30
2023-05-23T18:02:23.172Z,50.43
2023-05-23T18:04:50.361Z,50.56
2023-05-23T18:07:18.953Z,50.46
2023-05-23T18:09:47.187Z,50.38
2023-05-23T18:12:15.090Z,50.38
2023-05-23T18:14:42.370Z,50.66
2023-05-23T18:17:09.892Z,50.34
2023-05-23T18:19:37.380Z,50.23
2023-05-23T18:22:04.816Z,50.20
2023-05-23T18:24:31.815Z,50.11
2023-05-23T18:26:58.852Z,49.94
2023-05-23T18:29:26.194Z,50.27
2023-05-23T18:31:53.361Z,49.96
2023-05-23T18:34:21.625Z,49.90
2023-05-23T18:36:48.970Z,49.95
2023-05-23T18:39:16.849Z,49.93
2023-05-23T18:41:44.164Z,49.92
2023-05-23T18:44:11.329Z,49.77
2023-05-23T18:46:38.515Z,49.76
2023-05-23T18:49:05.959Z,50.11
2023-05-23T18:51:33.841Z,49.70
2023-05-23T18:54:01.035Z,49.54
2023-05-23T18:56:28.147Z,49.85
2023-05-23T18:58:55.857Z,49.81
2023-05-23T19:01:22.955Z,49.97
2023-05-23T19:03:50.232Z,49.83
2023-05-23T19:06:17.508Z,50.09
2023-05-23T19:08:45.091Z,50.15
2023-05-23T19:11:12.205Z,49.79
2023-05-23T19:13:39.295Z,49.98
2023-05-23T19:16:07.233Z,49.98
2023-05-23T19:18:34.233Z,50.01
2023-05-23T19:21:01.170Z,50.30
2023-05-23T19:23:28.260Z,49.91
2023-05-23T19:25:55.296Z,50.19
2023-05-23T19:28:22.421Z,50.09
2023-05-23T19:30:49.495Z,50.01
2023-05-23T19:33:18.518Z,50.07
2023-05-23T19:35:45.671Z,49.82
2023-05-23T19:38:12.752Z,49.81
2023-05-23T19:40:40.158Z,49.96
2023-05-23T19:43:07.371Z,49.89
2023-05-23T19:45:34.444Z,49.86
2023-05-23T19:48:01.843Z,49.89
2023-05-23T19:50:29.060Z,49.94
2023-05-23T19:52:56.238Z,50.03
2023-05-23T19:55:23.699Z,49.91
2023-05-23T19:57:50.816Z,49.92
2023-05-23T20:00:18.571Z,49.72
2023-05-23T20:02:47.318Z,49.82
2023-05-23T20:05:14.304Z,50.01
2023-05-23T20:07:41.583Z,49.90
2023-05-23T20:10:09.305Z,49.76
2023-05-23T20:12:36.670Z,49.80
2023-05-23T20:15:04.771Z,49.86
2023-05-23T20:17:32.312Z,49.83
2023-05-23T20:19:59.344Z,49.78
2023-05-23T20:22:26.866Z,49.84
2023-05-23T20:24:54.081Z,49.62
2023-05-23T20:27:21.672Z,49.87
2023-05-23T20:29:50.418Z,49.54
2023-05-23T20:32:17.548Z,49.72
2023-05-23T20:34:45.230Z,49.65
2023-05-23T20:37:13.791Z,49.80
2023-05-23T20:39:44.101Z,49.77
2023-05-23T20:42:11.306Z,49.88
2023-05-23T20:44:38.624Z,49.72
2023-05-23T20:47:06.815Z,49.87
2023-05-23T20:49:34.913Z,49.71
2023-05-23T20:52:02.144Z,49.68
2023-05-23T20:54:29.253Z,49.69
2023-05-23T20:56:56.486Z,49.59
2023-05-23T20:59:26.175Z,49.61
2023-05-23T21:01:53.446Z,49.57
2023-05-23T21:04:20.560Z,50.32
2023-05-23T21:06:47.743Z,49.76
2023-05-23T21:09:16.112Z,49.95
2023-05-23T21:11:43.410Z,50.05
2023-05-23T21:14:10.401Z,50.04
2023-05-23T21:16:38.076Z,50.09
2023-05-23T21:19:05.146Z,50.16
2023-05-23T21:21:32.297Z,50.20
2023-05-23T21:23:59.384Z,49.90
2023-05-23T21:26:26.403Z,50.11
2023-05-23T21:28:53.332Z,49.95
2023-05-23T21:31:29.779Z,50.32
2023-05-23T21:34:18.498Z,50.24
2023-05-23T21:36:49.253Z,50.03
2023-05-23T21:39:16.452Z,49.89
2023-05-23T21:41:43.540Z,50.25
2023-05-23T21:44:10.610Z,50.15
2023-05-23T21:46:37.740Z,50.09
2023-05-23T21:49:04.864Z,49.97
2023-05-23T21:51:32.344Z,50.26
2023-05-23T21:53:59.266Z,50.20
2023-05-23T21:56:27.934Z,50.09
2023-05-23T21:58:55.346Z,50.07
2023-05-23T22:01:22.479Z,50.12
2023-05-23T22:03:49.806Z,50.16
2023-05-23T22:06:16.837Z,50.55
2023-05-23T22:08:45.869Z,50.21
2023-05-23T22:11:13.225Z,50.34
2023-05-23T22:13:40.762Z,50.21
2023-05-23T22:16:07.857Z,50.57
2023-05-23T22:21:07.389Z,50.46
2023-05-23T22:23:34.588Z,50.48
2023-05-23T22:26:01.662Z,50.63
2023-05-23T22:28:28.716Z,50.37
2023-05-23T22:30:56.423Z,50.48
2023-05-23T22:33:23.332Z,50.16
2023-05-23T22:35:50.576Z,50.33
2023-05-23T22:38:18.481Z,50.30
2023-05-23T22:40:45.411Z,50.60
2023-05-23T22:43:12.350Z,50.22
2023-05-23T22:45:42.632Z,50.51
2023-05-23T22:48:11.510Z,50.39
2023-05-23T22:50:41.934Z,50.30
2023-05-23T22:53:09.348Z,50.71
2023-05-23T22:55:36.534Z,50.46
2023-05-23T22:58:03.809Z,50.28
2023-05-23T23:00:30.715Z,50.48
2023-05-23T23:02:57.921Z,50.53
2023-05-23T23:05:25.045Z,50.63
2023-05-23T23:07:52.209Z,50.54
2023-05-23T23:10:19.462Z,50.50
2023-05-23T23:12:46.402Z,50.47
2023-05-23T23:15:13.508Z,50.68
2023-05-23T23:17:40.498Z,50.61
2023-05-23T23:20:08.555Z,50.59
2023-05-23T23:22:36.523Z,50.71
2023-05-23T23:25:10.589Z,50.24
2023-05-23T23:27:38.889Z,50.23
2023-05-23T23:30:09.634Z,50.62
2023-05-23T23:32:36.682Z,50.66
2023-05-23T23:35:03.956Z,50.18
2023-05-23T23:37:30.973Z,50.75
2023-05-23T23:39:58.059Z,50.47
2023-05-23T23:42:25.036Z,50.44
2023-05-23T23:44:52.096Z,50.84
2023-05-23T23:47:19.161Z,50.78
2023-05-23T23:49:46.108Z,50.43
2023-05-23T23:52:13.471Z,50.80
2023-05-23T23:54:40.403Z,50.57
2023-05-23T23:57:13.470Z,50.43
2023-05-23T23:59:44.104Z,50.57
